Spring Creek, South Dakota
Current Conditions -  °F | °C
As of 9:15 AM on Friday 31 Oct 2014 (Local Time) from KVTN Reporting Station
Broken Clouds Broken Clouds  
Wind Chill: 14°   Ceiling: 1300
Heat Index: 23°   Visibility: 10mi
Dew Point: 20°   Wind: 8mph
Humidity: 88%   Direction: 180°S
Pressure: 30.52"   Gusts: NA
Location:  43.1381°N, 100.965°W
Report Text: KVTN 311415Z AUTO 18007KT 10SM BKN013 M05/M07 A3052 RMK AO2 T10501067
Loading
Personal Weather Stations






























Interactive Weather Map
Tropical Storm Tracking
New forecast layout! Learn more

10-Day Weather Forecast

Advertisements
Track Severe Weather on mobile